Time;durP1;ratioP1;P1;durP2;ratioP2;P2;SDS_P1;SDS_P2;PMS_P1;PMS_P2;Temp;Humidity;BMP_temperature;BMP_pressure;BME280_temperature;BME280_humidity;BME280_pressure;Samples;Min_cycle;Max_cycle;Signal;HPM_P1;HPM_P2
2023/09/02 00:01:03;;;;;;;4.72;2.45;;;29.20;45.00;;;;;;5071846;28;20040;-69
2023/09/02 00:03:29;;;;;;;4.22;2.65;;;29.20;45.10;;;;;;5068028;28;20045;-70
2023/09/02 00:05:55;;;;;;;4.93;2.97;;;29.20;45.10;;;;;;5069280;28;20051;-69
2023/09/02 00:08:21;;;;;;;3.28;2.30;;;29.30;45.20;;;;;;5067659;28;20032;-69
2023/09/02 00:10:47;;;;;;;5.22;3.05;;;29.10;45.20;;;;;;5064635;28;20437;-69
2023/09/02 00:13:13;;;;;;;5.07;3.17;;;29.20;45.20;;;;;;5064349;28;20071;-69
2023/09/02 00:15:41;;;;;;;3.83;2.67;;;29.20;45.30;;;;;;5071352;28;20040;-69
2023/09/02 00:18:07;;;;;;;2.97;2.42;;;29.10;45.30;;;;;;5069015;28;20114;-69
2023/09/02 00:20:33;;;;;;;2.92;2.42;;;29.30;45.40;;;;;;5042579;28;20029;-70
2023/09/02 00:22:59;;;;;;;2.95;2.42;;;29.20;45.40;;;;;;5040444;28;20400;-69
2023/09/02 00:25:25;;;;;;;3.10;2.00;;;29.30;45.40;;;;;;5067746;28;20123;-69
2023/09/02 00:27:52;;;;;;;4.13;3.45;;;29.10;45.40;;;;;;5068200;28;20058;-69
2023/09/02 00:30:18;;;;;;;6.68;2.40;;;29.20;45.50;;;;;;5071358;28;20037;-69
2023/09/02 00:32:44;;;;;;;4.03;2.42;;;29.20;45.50;;;;;;5063940;28;20049;-69
2023/09/02 00:35:10;;;;;;;2.78;2.28;;;29.20;45.50;;;;;;5069816;28;20167;-69
2023/09/02 00:37:36;;;;;;;2.47;2.28;;;29.10;45.50;;;;;;5066108;28;20515;-69
2023/09/02 00:40:03;;;;;;;3.10;2.22;;;29.10;45.60;;;;;;5066667;28;20116;-70
2023/09/02 00:42:30;;;;;;;4.18;2.63;;;29.30;45.60;;;;;;5068409;28;20028;-70
2023/09/02 00:44:57;;;;;;;2.60;2.40;;;29.10;45.60;;;;;;5068793;28;20025;-69
2023/09/02 00:47:23;;;;;;;6.45;3.55;;;29.30;45.60;;;;;;5068819;28;20117;-69
2023/09/02 00:49:49;;;;;;;4.95;3.50;;;29.30;45.60;;;;;;5066595;28;20028;-69
2023/09/02 00:52:15;;;;;;;7.95;3.05;;;29.30;45.70;;;;;;5079048;28;20040;-69
2023/09/02 00:54:41;;;;;;;5.05;3.13;;;29.20;45.70;;;;;;5076931;28;20488;-69
2023/09/02 00:57:07;;;;;;;8.85;3.85;;;29.10;45.80;;;;;;5088409;28;20476;-70
2023/09/02 00:59:34;;;;;;;2.85;2.53;;;29.10;45.80;;;;;;5082530;28;20043;-70
2023/09/02 01:02:02;;;;;;;3.15;2.40;;;29.10;45.90;;;;;;5088605;28;20040;-70
2023/09/02 01:04:28;;;;;;;3.55;2.38;;;29.10;45.90;;;;;;5085267;28;20044;-69
2023/09/02 01:06:58;;;;;;;5.13;3.38;;;29.10;45.90;;;;;;5080147;28;20048;-70
2023/09/02 01:09:24;;;;;;;4.35;3.08;;;29.00;46.00;;;;;;5070034;28;20101;-69
2023/09/02 01:11:50;;;;;;;4.03;3.50;;;29.20;46.00;;;;;;5085999;28;20090;-70
2023/09/02 01:14:16;;;;;;;4.93;3.55;;;29.20;46.00;;;;;;5051773;28;20040;-69
2023/09/02 01:16:42;;;;;;;6.28;3.17;;;29.20;46.00;;;;;;5088578;28;20043;-70
2023/09/02 01:19:14;;;;;;;4.85;3.63;;;29.10;46.00;;;;;;5084727;28;20044;-70
2023/09/02 01:21:49;;;;;;;6.15;3.60;;;29.20;46.00;;;;;;5092725;28;20495;-69
2023/09/02 01:24:37;;;;;;;4.85;3.20;;;29.10;46.10;;;;;;5061660;28;20045;-70
2023/09/02 01:27:13;;;;;;;5.95;3.38;;;29.20;46.10;;;;;;5074729;28;20028;-70
2023/09/02 01:29:57;;;;;;;5.25;3.08;;;29.10;46.10;;;;;;5074583;28;20445;-69
2023/09/02 01:32:28;;;;;;;6.45;2.90;;;29.10;46.10;;;;;;5074751;28;20039;-69
2023/09/02 01:34:57;;;;;;;5.00;3.20;;;29.10;46.10;;;;;;5070565;28;20507;-70
2023/09/02 01:37:25;;;;;;;4.47;3.28;;;29.00;46.10;;;;;;5068989;28;20492;-69
2023/09/02 01:39:54;;;;;;;4.25;3.15;;;29.10;46.10;;;;;;5074255;28;20031;-69
2023/09/02 01:42:20;;;;;;;3.35;2.72;;;29.20;46.10;;;;;;5068163;28;20038;-70
2023/09/02 01:44:47;;;;;;;3.00;2.45;;;29.10;46.10;;;;;;5048568;28;20025;-70
2023/09/02 01:47:15;;;;;;;2.95;1.77;;;29.20;46.20;;;;;;5074067;28;20056;-70
2023/09/02 01:49:42;;;;;;;3.13;2.70;;;29.00;46.20;;;;;;5072907;28;20396;-69
2023/09/02 01:52:08;;;;;;;4.22;2.38;;;29.10;46.20;;;;;;5072827;28;20038;-70
2023/09/02 01:54:37;;;;;;;3.03;2.75;;;29.10;46.20;;;;;;5063858;28;20048;-69
2023/09/02 01:57:04;;;;;;;3.75;2.80;;;29.00;46.30;;;;;;5072363;28;20127;-70
2023/09/02 01:59:30;;;;;;;5.13;3.40;;;29.00;46.30;;;;;;5070208;28;20025;-69
2023/09/02 02:01:56;;;;;;;2.97;2.35;;;29.00;46.40;;;;;;5090157;28;20040;-70
2023/09/02 02:04:46;;;;;;;3.38;2.88;;;29.10;46.50;;;;;;5087364;28;20060;-69
2023/09/02 02:07:14;;;;;;;2.53;2.10;;;29.00;46.60;;;;;;5091452;28;20048;-69
2023/09/02 02:09:48;;;;;;;2.40;2.17;;;29.00;46.70;;;;;;5085624;28;20036;-70
2023/09/02 02:12:14;;;;;;;4.00;2.85;;;29.00;46.70;;;;;;5034620;28;20049;-69
2023/09/02 02:14:40;;;;;;;5.95;2.53;;;28.90;46.20;;;;;;5059700;28;20115;-70
2023/09/02 02:17:07;;;;;;;3.15;2.65;;;28.80;46.30;;;;;;5091546;28;20056;-70
2023/09/02 02:19:34;;;;;;;2.90;2.35;;;28.80;46.30;;;;;;5073881;28;20028;-70
2023/09/02 02:22:00;;;;;;;3.88;2.92;;;28.80;46.30;;;;;;5090099;28;20487;-69
2023/09/02 02:24:26;;;;;;;4.15;2.83;;;28.80;46.40;;;;;;5063853;28;20038;-69
2023/09/02 02:26:52;;;;;;;4.10;2.22;;;28.70;46.40;;;;;;5091206;28;20147;-69
2023/09/02 02:29:18;;;;;;;6.05;2.58;;;28.80;46.40;;;;;;5070475;28;20047;-70
2023/09/02 02:31:44;;;;;;;3.60;2.67;;;28.70;46.50;;;;;;5068416;28;20091;-69
2023/09/02 02:34:10;;;;;;;3.30;3.00;;;28.80;46.50;;;;;;5067580;28;20075;-70
2023/09/02 02:36:36;;;;;;;2.65;2.42;;;28.80;46.60;;;;;;5066025;28;20117;-70
2023/09/02 02:39:04;;;;;;;3.40;3.10;;;28.80;46.60;;;;;;5054152;28;20040;-70
2023/09/02 02:41:32;;;;;;;3.15;2.38;;;28.80;46.60;;;;;;5037472;28;20032;-70
2023/09/02 02:43:59;;;;;;;3.75;2.60;;;28.80;46.50;;;;;;5031989;28;20036;-70
2023/09/02 02:46:25;;;;;;;5.68;3.20;;;28.90;46.50;;;;;;5054040;28;20674;-70
2023/09/02 02:48:51;;;;;;;3.47;3.05;;;28.80;46.50;;;;;;5051394;28;20076;-70
2023/09/02 02:51:18;;;;;;;9.27;3.58;;;28.80;46.50;;;;;;5041519;28;20041;-70
2023/09/02 02:53:45;;;;;;;4.20;2.92;;;28.90;46.50;;;;;;5036225;28;20033;-69
2023/09/02 02:56:12;;;;;;;5.38;3.60;;;29.00;47.00;;;;;;5053972;28;20516;-69
2023/09/02 02:58:38;;;;;;;3.72;3.28;;;28.90;46.50;;;;;;5037909;28;20065;-70
2023/09/02 03:01:13;;;;;;;3.67;3.10;;;28.90;46.50;;;;;;5047537;28;20044;-70
2023/09/02 03:03:41;;;;;;;3.53;2.55;;;29.00;47.00;;;;;;5052626;28;20075;-69
2023/09/02 03:06:07;;;;;;;4.05;2.22;;;29.00;47.00;;;;;;5068201;28;20055;-70
2023/09/02 03:08:34;;;;;;;3.00;2.55;;;28.90;46.50;;;;;;5070594;28;20024;-70
2023/09/02 03:11:03;;;;;;;2.58;2.35;;;29.00;47.10;;;;;;5071611;28;20071;-70
2023/09/02 03:13:33;;;;;;;3.53;2.42;;;29.00;47.10;;;;;;5068555;28;20036;-70
2023/09/02 03:16:04;;;;;;;6.60;2.92;;;29.00;47.00;;;;;;5071186;28;20161;-69
2023/09/02 03:18:30;;;;;;;3.63;2.80;;;29.00;47.10;;;;;;5071506;28;20483;-70
2023/09/02 03:21:05;;;;;;;3.33;3.03;;;29.00;47.10;;;;;;5066438;28;20073;-69
2023/09/02 03:23:34;;;;;;;3.97;3.20;;;29.20;47.00;;;;;;5047292;28;20041;-70
2023/09/02 03:26:10;;;;;;;4.15;2.35;;;29.10;47.10;;;;;;5050700;28;20041;-69
2023/09/02 03:28:37;;;;;;;5.97;2.95;;;29.20;47.00;;;;;;5071141;28;20480;-69
2023/09/02 03:31:05;;;;;;;6.13;2.65;;;29.10;47.00;;;;;;5072316;28;20503;-69
2023/09/02 03:33:31;;;;;;;3.60;2.75;;;29.20;47.00;;;;;;5053171;28;20479;-70
2023/09/02 03:35:58;;;;;;;3.35;2.20;;;29.10;47.00;;;;;;5083394;28;20059;-70
2023/09/02 03:38:23;;;;;;;5.18;3.28;;;29.10;47.00;;;;;;5066490;28;20063;-69
2023/09/02 03:40:49;;;;;;;3.45;2.72;;;29.20;47.00;;;;;;5070589;28;20044;-69
2023/09/02 03:43:15;;;;;;;4.10;2.45;;;29.10;47.00;;;;;;5067785;28;20124;-70
2023/09/02 03:45:42;;;;;;;4.45;2.78;;;29.10;47.00;;;;;;5067645;28;20040;-70
2023/09/02 03:48:11;;;;;;;3.80;2.55;;;29.20;47.00;;;;;;5046367;28;20041;-69
2023/09/02 03:51:05;;;;;;;2.65;2.42;;;29.10;47.00;;;;;;5050775;28;20041;-69
2023/09/02 03:53:33;;;;;;;2.75;2.45;;;29.10;47.00;;;;;;5068935;28;20056;-69
2023/09/02 03:56:00;;;;;;;2.42;2.13;;;29.20;47.00;;;;;;5068101;28;20457;-69
2023/09/02 03:58:29;;;;;;;2.58;2.25;;;29.20;47.00;;;;;;5083397;28;20506;-69
2023/09/02 04:00:56;;;;;;;2.92;2.42;;;29.20;47.00;;;;;;5067995;28;20384;-69
2023/09/02 04:03:23;;;;;;;3.15;2.42;;;29.20;47.00;;;;;;5069969;28;20101;-70
2023/09/02 04:05:49;;;;;;;3.90;2.33;;;29.10;47.00;;;;;;5068051;28;20063;-69
2023/09/02 04:08:21;;;;;;;2.70;2.20;;;29.10;47.00;;;;;;5064313;28;20056;-69
2023/09/02 04:10:52;;;;;;;3.40;2.65;;;29.30;47.00;;;;;;5069546;28;20117;-70
2023/09/02 04:13:25;;;;;;;4.15;2.78;;;29.10;47.00;;;;;;5047804;28;20041;-70
2023/09/02 04:15:58;;;;;;;4.72;2.78;;;29.20;47.00;;;;;;5059990;28;20044;-69
2023/09/02 04:18:26;;;;;;;3.05;2.40;;;29.20;47.00;;;;;;5070146;28;20086;-69
2023/09/02 04:20:54;;;;;;;2.72;2.53;;;29.10;47.00;;;;;;5070032;28;20050;-70
2023/09/02 04:23:21;;;;;;;3.08;2.60;;;29.30;46.90;;;;;;5062177;28;20166;-69
2023/09/02 04:25:51;;;;;;;3.13;2.60;;;29.10;46.90;;;;;;5045357;28;20032;-70
2023/09/02 04:28:19;;;;;;;6.15;3.10;;;29.10;47.00;;;;;;5030147;28;20087;-69
2023/09/02 04:30:47;;;;;;;3.25;2.75;;;29.10;47.00;;;;;;5033335;28;20057;-70
2023/09/02 04:33:15;;;;;;;3.22;2.58;;;29.10;47.00;;;;;;5063820;28;20056;-69
2023/09/02 04:35:45;;;;;;;3.60;2.92;;;29.20;47.00;;;;;;5045835;28;20041;-69
2023/09/02 04:38:11;;;;;;;3.03;2.72;;;29.10;47.00;;;;;;5045745;28;20044;-70
2023/09/02 04:40:40;;;;;;;2.80;2.53;;;29.10;47.00;;;;;;5051970;28;20163;-70
2023/09/02 04:43:07;;;;;;;3.55;2.83;;;29.00;47.00;;;;;;5032500;28;20107;-70
2023/09/02 04:45:38;;;;;;;4.93;2.60;;;29.10;47.00;;;;;;5047013;28;20110;-69
2023/09/02 04:48:08;;;;;;;3.22;2.45;;;28.90;46.50;;;;;;5068506;28;20135;-69
2023/09/02 04:50:36;;;;;;;3.00;2.17;;;29.00;47.00;;;;;;5037172;28;20044;-70
2023/09/02 04:53:03;;;;;;;3.63;2.80;;;29.00;47.00;;;;;;5037010;28;20203;-70
2023/09/02 04:55:36;;;;;;;3.38;2.47;;;29.20;47.00;;;;;;5036548;28;20381;-70
2023/09/02 04:58:03;;;;;;;3.70;2.85;;;29.20;47.10;;;;;;5053034;28;20506;-69
2023/09/02 05:00:29;;;;;;;3.13;2.33;;;29.10;47.10;;;;;;5047945;28;20065;-70
2023/09/02 05:02:56;;;;;;;4.22;2.53;;;29.00;47.10;;;;;;5051759;28;20032;-69
2023/09/02 05:05:23;;;;;;;3.38;2.58;;;29.10;47.10;;;;;;5051653;28;20048;-69
2023/09/02 05:07:50;;;;;;;2.92;2.40;;;29.00;47.10;;;;;;5057156;28;20041;-69
2023/09/02 05:10:17;;;;;;;3.58;2.65;;;29.20;47.20;;;;;;5046404;28;20156;-69
2023/09/02 05:12:43;;;;;;;3.92;2.83;;;29.00;47.20;;;;;;5038314;28;20063;-70
2023/09/02 05:15:10;;;;;;;5.50;3.45;;;29.10;47.10;;;;;;5052117;28;20035;-70
2023/09/02 05:17:37;;;;;;;4.00;2.78;;;29.10;47.20;;;;;;5051931;28;20038;-69
2023/09/02 05:20:04;;;;;;;4.57;2.53;;;29.10;47.20;;;;;;5070828;28;20029;-69
2023/09/02 05:22:32;;;;;;;3.42;2.40;;;29.10;47.20;;;;;;5047204;28;20030;-70
2023/09/02 05:24:59;;;;;;;3.20;2.78;;;29.00;47.20;;;;;;5050668;28;20047;-70
2023/09/02 05:27:25;;;;;;;4.72;3.22;;;29.20;47.80;;;;;;5060042;28;20041;-68
2023/09/02 05:29:51;;;;;;;11.65;4.50;;;29.10;46.90;;;;;;5050208;28;20060;-67
2023/09/02 05:32:17;;;;;;;12.75;5.13;;;29.00;46.10;;;;;;5051144;28;20053;-68
2023/09/02 05:34:44;;;;;;;8.70;4.53;;;29.10;46.00;;;;;;5048438;28;20029;-68
2023/09/02 05:37:10;;;;;;;9.30;4.43;;;29.20;46.60;;;;;;5057364;28;20155;-68
2023/09/02 05:39:36;;;;;;;7.53;4.10;;;29.10;45.60;;;;;;5060624;28;20036;-69
2023/09/02 05:42:03;;;;;;;6.63;4.35;;;29.10;44.90;;;;;;5058494;28;20032;-68
2023/09/02 05:44:29;;;;;;;8.25;3.90;;;29.10;44.90;;;;;;5046592;28;20120;-68
2023/09/02 05:46:55;;;;;;;12.00;4.50;;;29.20;44.80;;;;;;5049114;28;20128;-67
2023/09/02 05:49:21;;;;;;;7.03;4.07;;;29.10;44.80;;;;;;5064147;28;20040;-69
2023/09/02 05:51:47;;;;;;;8.18;4.40;;;29.10;44.60;;;;;;5058160;28;20037;-69
2023/09/02 05:54:13;;;;;;;5.00;3.80;;;29.10;44.50;;;;;;5061659;28;20061;-67
2023/09/02 05:56:40;;;;;;;4.50;3.80;;;29.20;44.40;;;;;;5051469;28;20079;-67
2023/09/02 05:59:06;;;;;;;7.85;4.18;;;29.20;44.40;;;;;;5070335;28;20032;-68
2023/09/02 06:01:32;;;;;;;6.95;3.85;;;29.10;44.40;;;;;;5070502;28;20044;-67
2023/09/02 06:03:58;;;;;;;6.85;3.75;;;29.10;44.30;;;;;;5061501;28;20036;-68
2023/09/02 06:06:24;;;;;;;5.20;3.58;;;29.10;44.20;;;;;;5054346;28;20430;-70
2023/09/02 06:08:50;;;;;;;5.03;3.70;;;29.20;44.10;;;;;;5040575;28;20049;-67
2023/09/02 06:11:16;;;;;;;5.38;3.80;;;29.20;43.80;;;;;;5051374;28;20036;-68
2023/09/02 06:13:42;;;;;;;10.27;3.97;;;29.30;43.90;;;;;;5054383;28;20103;-70
2023/09/02 06:16:08;;;;;;;6.00;4.35;;;29.10;44.10;;;;;;5067033;28;20051;-69
2023/09/02 06:18:35;;;;;;;6.68;4.93;;;29.30;44.20;;;;;;5073538;28;20040;-69
2023/09/02 06:21:12;;;;;;;5.40;4.05;;;29.20;44.40;;;;;;5073565;28;20060;-68
2023/09/02 06:23:41;;;;;;;6.20;3.85;;;29.10;44.40;;;;;;5073492;28;20032;-69
2023/09/02 06:26:07;;;;;;;5.78;3.45;;;29.30;44.50;;;;;;5073274;28;20108;-68
2023/09/02 06:28:33;;;;;;;4.72;3.83;;;29.20;44.50;;;;;;5073255;28;20063;-69
2023/09/02 06:31:05;;;;;;;3.95;3.35;;;29.40;44.60;;;;;;5073065;28;20062;-68
2023/09/02 06:33:32;;;;;;;4.90;3.38;;;29.20;44.70;;;;;;5071944;28;20081;-69
2023/09/02 06:35:58;;;;;;;5.70;3.35;;;29.40;44.70;;;;;;5073091;28;20082;-69
2023/09/02 06:38:24;;;;;;;6.55;3.88;;;29.20;44.70;;;;;;5073336;28;20098;-69
2023/09/02 06:40:50;;;;;;;5.60;3.78;;;29.20;44.80;;;;;;5059443;28;20044;-69
2023/09/02 06:43:16;;;;;;;5.20;3.50;;;29.30;44.90;;;;;;5053047;28;20071;-69
2023/09/02 06:45:42;;;;;;;7.85;4.07;;;29.30;45.00;;;;;;5053044;28;20126;-69
2023/09/02 06:48:08;;;;;;;5.28;3.25;;;29.30;45.00;;;;;;5053256;28;20045;-68
2023/09/02 06:50:34;;;;;;;5.82;3.63;;;29.30;45.10;;;;;;5067972;28;20041;-69
2023/09/02 06:53:00;;;;;;;5.30;3.53;;;29.20;45.20;;;;;;5052862;28;20337;-69
2023/09/02 06:55:26;;;;;;;4.63;3.63;;;29.20;45.30;;;;;;5052852;28;20089;-69
2023/09/02 06:57:52;;;;;;;4.80;3.65;;;29.20;45.30;;;;;;5052641;28;20033;-69
2023/09/02 07:00:18;;;;;;;5.32;3.45;;;29.30;45.40;;;;;;5052967;28;20029;-68
2023/09/02 07:02:44;;;;;;;3.28;2.95;;;29.10;45.40;;;;;;5052763;28;20064;-70
2023/09/02 07:05:10;;;;;;;4.68;3.53;;;29.10;45.50;;;;;;5052988;28;20072;-69
2023/09/02 07:07:37;;;;;;;5.97;3.65;;;29.10;45.60;;;;;;5052822;28;20555;-68
2023/09/02 07:10:05;;;;;;;4.55;3.40;;;29.20;45.60;;;;;;5052862;28;20488;-69
2023/09/02 07:12:31;;;;;;;5.63;3.08;;;29.10;45.60;;;;;;5051578;28;20044;-69
2023/09/02 07:14:57;;;;;;;9.73;3.65;;;29.10;45.60;;;;;;5052568;28;20060;-69
2023/09/02 07:17:26;;;;;;;5.18;3.05;;;29.10;45.60;;;;;;5052285;28;20130;-69
2023/09/02 07:19:52;;;;;;;7.25;3.13;;;29.10;45.70;;;;;;5052639;28;20040;-68
2023/09/02 07:22:18;;;;;;;3.28;2.97;;;29.20;45.80;;;;;;5066902;28;20737;-69
2023/09/02 07:24:44;;;;;;;5.80;3.33;;;29.20;45.80;;;;;;5052067;28;20074;-69
2023/09/02 07:27:10;;;;;;;6.13;3.40;;;29.20;45.90;;;;;;5052912;28;20045;-69
2023/09/02 07:29:36;;;;;;;5.97;3.45;;;29.30;46.00;;;;;;5051277;28;20029;-69
2023/09/02 07:32:03;;;;;;;4.30;3.25;;;29.10;46.00;;;;;;5052670;28;20032;-69
2023/09/02 07:34:29;;;;;;;3.28;2.97;;;29.10;46.10;;;;;;5052420;28;20127;-69
2023/09/02 07:36:55;;;;;;;4.72;3.10;;;29.30;46.10;;;;;;5051155;28;20120;-69
2023/09/02 07:39:21;;;;;;;5.30;3.17;;;29.10;46.10;;;;;;5052408;28;20132;-69
2023/09/02 07:41:48;;;;;;;4.25;3.25;;;29.20;46.20;;;;;;5052216;28;20043;-69
2023/09/02 07:44:14;;;;;;;5.50;3.55;;;29.20;46.20;;;;;;5052082;28;20040;-69
2023/09/02 07:46:41;;;;;;;4.07;2.95;;;29.10;46.20;;;;;;5051817;28;20025;-69
2023/09/02 07:49:07;;;;;;;3.95;3.38;;;29.20;46.30;;;;;;5052098;28;20086;-69
2023/09/02 07:51:32;;;;;;;3.42;3.13;;;29.00;46.30;;;;;;5052108;28;20033;-69
2023/09/02 07:53:58;;;;;;;5.45;3.22;;;29.10;46.30;;;;;;5051536;28;20104;-69
2023/09/02 07:56:25;;;;;;;3.28;2.95;;;29.10;46.40;;;;;;5051857;28;20033;-69
2023/09/02 07:58:51;;;;;;;4.70;2.50;;;29.00;46.40;;;;;;5051775;28;20029;-69
2023/09/02 08:01:18;;;;;;;4.75;3.40;;;29.10;46.40;;;;;;5051900;28;20037;-69
2023/09/02 08:03:44;;;;;;;5.75;3.22;;;29.00;46.40;;;;;;5051797;28;20028;-69
2023/09/02 08:06:11;;;;;;;4.05;3.15;;;29.00;46.60;;;;;;5051740;28;20076;-69
2023/09/02 08:08:37;;;;;;;6.10;3.35;;;29.00;46.60;;;;;;5051525;28;20075;-69
2023/09/02 08:11:06;;;;;;;3.10;2.80;;;29.00;46.70;;;;;;5051731;28;20033;-69
2023/09/02 08:13:33;;;;;;;3.63;2.83;;;29.10;46.70;;;;;;5051659;28;20040;-68
2023/09/02 08:16:04;;;;;;;4.40;2.92;;;29.10;46.70;;;;;;5050475;28;20128;-69
2023/09/02 08:18:30;;;;;;;3.60;2.65;;;29.10;46.70;;;;;;5051596;28;20405;-69
2023/09/02 08:20:56;;;;;;;7.15;3.08;;;29.10;46.70;;;;;;5051444;28;20488;-69
2023/09/02 08:23:22;;;;;;;4.90;2.78;;;29.10;46.70;;;;;;5050265;28;20036;-69
2023/09/02 08:25:56;;;;;;;5.55;3.08;;;29.00;46.80;;;;;;5051174;28;20037;-69
2023/09/02 08:28:22;;;;;;;3.53;3.08;;;29.10;46.80;;;;;;5050845;28;20032;-69
2023/09/02 08:30:48;;;;;;;5.32;3.65;;;29.00;46.80;;;;;;5051385;28;20029;-69
2023/09/02 08:33:14;;;;;;;3.35;3.00;;;29.10;46.90;;;;;;5051389;28;20024;-69
2023/09/02 08:35:40;;;;;;;5.82;3.05;;;28.90;46.30;;;;;;5051218;28;20063;-69
2023/09/02 08:38:06;;;;;;;4.22;3.47;;;29.00;46.90;;;;;;5051153;28;20068;-69
2023/09/02 08:40:32;;;;;;;3.42;2.75;;;29.10;46.90;;;;;;5051275;28;20068;-69
2023/09/02 08:43:02;;;;;;;3.63;2.80;;;29.20;47.00;;;;;;5052522;28;20028;-69
2023/09/02 08:45:29;;;;;;;4.82;3.22;;;29.10;46.90;;;;;;5071206;28;20127;-69
2023/09/02 08:48:01;;;;;;;4.45;2.65;;;29.10;46.90;;;;;;5071050;28;20589;-69
2023/09/02 08:50:28;;;;;;;3.30;2.75;;;29.10;47.00;;;;;;5055156;28;20025;-69
2023/09/02 08:52:55;;;;;;;4.78;3.50;;;29.00;47.00;;;;;;5051190;28;20387;-69
2023/09/02 08:55:22;;;;;;;4.25;3.05;;;29.00;47.00;;;;;;5051062;28;20044;-69
2023/09/02 08:57:49;;;;;;;3.65;3.13;;;29.00;47.00;;;;;;5051051;28;20035;-69
2023/09/02 09:00:15;;;;;;;4.38;3.00;;;28.90;46.50;;;;;;5049803;28;20037;-69
2023/09/02 09:02:41;;;;;;;4.82;2.70;;;28.90;46.60;;;;;;5050922;28;20090;-69
2023/09/02 09:05:09;;;;;;;3.70;3.28;;;28.90;46.60;;;;;;5050772;28;20069;-69
2023/09/02 09:07:39;;;;;;;3.17;2.70;;;28.90;46.60;;;;;;5050670;28;20037;-69
2023/09/02 09:10:09;;;;;;;4.32;3.35;;;28.90;46.70;;;;;;5050783;28;20055;-69
2023/09/02 09:12:36;;;;;;;3.55;2.83;;;28.90;46.70;;;;;;5050711;28;20043;-69
2023/09/02 09:15:02;;;;;;;6.18;3.25;;;29.00;47.20;;;;;;5050587;28;20098;-69
2023/09/02 09:17:30;;;;;;;3.97;3.47;;;28.90;46.70;;;;;;5050946;28;20028;-69
2023/09/02 09:19:59;;;;;;;5.20;2.92;;;29.00;47.30;;;;;;5049619;28;20431;-69
2023/09/02 09:22:26;;;;;;;3.20;2.80;;;28.90;46.70;;;;;;5050671;28;20123;-68
2023/09/02 09:24:53;;;;;;;3.22;2.90;;;29.00;47.30;;;;;;5050759;28;20090;-69
2023/09/02 09:27:19;;;;;;;4.07;3.08;;;29.00;47.40;;;;;;5050741;28;20029;-69
2023/09/02 09:29:45;;;;;;;4.68;2.63;;;29.00;47.40;;;;;;5050851;28;20029;-69
2023/09/02 09:32:13;;;;;;;4.15;3.50;;;29.00;47.40;;;;;;5049557;28;20033;-69
2023/09/02 09:34:41;;;;;;;5.13;3.60;;;29.00;47.40;;;;;;5050525;28;20043;-69
2023/09/02 09:37:08;;;;;;;3.53;2.85;;;29.00;47.50;;;;;;5050716;28;20043;-69
2023/09/02 09:39:45;;;;;;;3.75;3.00;;;29.00;47.50;;;;;;5052389;28;20025;-69
2023/09/02 09:42:15;;;;;;;3.97;2.80;;;29.10;47.50;;;;;;5054364;28;20480;-69
2023/09/02 09:44:56;;;;;;;4.38;2.70;;;28.90;46.90;;;;;;5054369;28;20048;-69
2023/09/02 09:47:23;;;;;;;2.92;2.67;;;29.00;47.50;;;;;;5054527;28;20103;-69
2023/09/02 09:49:50;;;;;;;4.60;2.85;;;29.00;47.60;;;;;;5054117;28;20076;-68
2023/09/02 09:52:18;;;;;;;3.47;2.67;;;28.90;47.00;;;;;;5054327;28;20404;-69
2023/09/02 09:54:48;;;;;;;3.33;2.78;;;29.00;47.60;;;;;;5054305;28;20028;-69
2023/09/02 09:57:16;;;;;;;2.88;2.55;;;29.00;47.50;;;;;;5054095;28;20061;-69
2023/09/02 09:59:52;;;;;;;3.78;2.72;;;28.80;47.10;;;;;;5054058;28;20069;-69
2023/09/02 10:02:22;;;;;;;3.60;2.60;;;28.80;47.10;;;;;;5054335;28;20664;-69
2023/09/02 10:04:57;;;;;;;3.90;2.40;;;28.80;47.20;;;;;;5053327;28;20036;-70
2023/09/02 10:07:30;;;;;;;3.13;2.65;;;28.90;47.20;;;;;;5053856;28;20045;-69
2023/09/02 10:10:03;;;;;;;3.00;2.65;;;28.90;47.30;;;;;;5053991;28;20113;-68
2023/09/02 10:12:35;;;;;;;4.25;2.85;;;28.90;47.30;;;;;;5053947;28;20374;-69
2023/09/02 10:15:02;;;;;;;5.27;3.17;;;28.90;47.30;;;;;;5054120;28;20385;-69
2023/09/02 10:17:32;;;;;;;3.72;2.88;;;28.90;47.40;;;;;;5054168;28;20033;-69
2023/09/02 10:19:58;;;;;;;2.85;2.42;;;28.90;47.30;;;;;;5053479;28;20070;-69
2023/09/02 10:22:31;;;;;;;3.58;2.50;;;28.90;47.40;;;;;;5053666;28;20040;-68
2023/09/02 10:24:59;;;;;;;2.67;2.47;;;28.80;47.40;;;;;;5052248;28;20040;-69
2023/09/02 10:27:28;;;;;;;3.85;2.55;;;28.80;47.40;;;;;;5050877;28;20052;-69
2023/09/02 10:29:57;;;;;;;4.10;2.50;;;28.90;47.40;;;;;;5050968;28;20048;-69
2023/09/02 10:32:40;;;;;;;3.30;2.50;;;28.90;47.40;;;;;;5050953;28;20096;-69
2023/09/02 10:35:22;;;;;;;3.00;2.35;;;28.90;47.50;;;;;;5050921;28;20044;-69
2023/09/02 10:37:52;;;;;;;3.67;2.53;;;28.90;47.50;;;;;;5050983;28;20053;-69
2023/09/02 10:40:34;;;;;;;4.78;3.10;;;28.90;47.50;;;;;;5051052;28;20056;-68
2023/09/02 10:43:00;;;;;;;4.20;3.33;;;29.00;48.00;;;;;;5058952;28;20072;-69
2023/09/02 10:45:28;;;;;;;3.38;2.60;;;29.00;48.00;;;;;;5070767;28;20048;-69
2023/09/02 10:47:54;;;;;;;3.78;2.38;;;28.90;47.50;;;;;;5070712;28;20056;-69
2023/09/02 10:50:21;;;;;;;2.45;2.15;;;28.80;47.50;;;;;;5070425;28;20039;-69
2023/09/02 10:52:50;;;;;;;2.95;2.40;;;28.80;47.50;;;;;;5070533;28;20048;-69
2023/09/02 10:55:17;;;;;;;2.42;2.22;;;28.80;47.50;;;;;;5070775;28;20078;-69
2023/09/02 10:57:50;;;;;;;3.00;2.65;;;28.90;47.50;;;;;;5055043;28;20444;-69
2023/09/02 11:00:20;;;;;;;3.83;2.25;;;28.80;47.50;;;;;;5073451;28;20048;-69
2023/09/02 11:02:52;;;;;;;2.92;2.33;;;28.80;47.60;;;;;;5090771;28;20269;-69
2023/09/02 11:05:19;;;;;;;3.88;2.65;;;28.80;47.70;;;;;;5090522;28;20101;-69
2023/09/02 11:07:46;;;;;;;3.75;2.67;;;28.80;47.70;;;;;;5090377;28;20163;-69
2023/09/02 11:10:12;;;;;;;3.13;2.67;;;28.80;47.70;;;;;;5090615;28;20496;-69
2023/09/02 11:12:57;;;;;;;2.85;2.38;;;29.00;48.30;;;;;;5056795;28;20064;-69
2023/09/02 11:15:23;;;;;;;2.63;2.42;;;29.00;48.30;;;;;;5090415;28;20059;-69
2023/09/02 11:17:49;;;;;;;2.97;2.10;;;28.80;47.70;;;;;;5073266;28;20028;-69
2023/09/02 11:20:19;;;;;;;4.30;3.00;;;28.80;47.80;;;;;;5090395;28;20139;-69
2023/09/02 11:22:50;;;;;;;2.97;2.67;;;28.80;47.80;;;;;;5073229;28;20131;-69
2023/09/02 11:25:46;;;;;;;3.13;2.80;;;28.80;47.80;;;;;;5090125;28;20489;-70
2023/09/02 11:28:17;;;;;;;2.53;2.30;;;29.00;48.40;;;;;;5029893;28;20490;-68
2023/09/02 11:31:10;;;;;;;3.30;2.33;;;29.00;48.40;;;;;;5029786;28;20045;-69
2023/09/02 11:33:40;;;;;;;2.53;2.33;;;29.00;48.40;;;;;;5030122;28;20182;-69
2023/09/02 11:36:07;;;;;;;3.55;2.80;;;28.90;47.90;;;;;;5029732;28;20041;-69
2023/09/02 11:38:34;;;;;;;3.45;2.45;;;28.90;47.90;;;;;;5029990;28;20045;-69
2023/09/02 11:41:01;;;;;;;2.47;2.28;;;28.80;47.90;;;;;;5029762;28;20041;-69
2023/09/02 11:43:33;;;;;;;2.35;2.15;;;29.00;48.40;;;;;;5029701;28;20050;-69
2023/09/02 11:46:00;;;;;;;;;;;28.80;48.00;;;;;;5029767;28;20414;-69
2023/09/02 11:48:27;;;;;;;2.22;2.03;;;29.00;47.60;;;;;;5029373;28;20359;-69
2023/09/02 11:50:58;;;;;;;2.53;2.33;;;28.70;47.80;;;;;;5013022;28;20046;-69
2023/09/02 11:53:33;;;;;;;2.95;2.63;;;28.80;47.90;;;;;;5029752;28;20072;-69
2023/09/02 11:55:59;;;;;;;3.10;2.55;;;28.80;47.90;;;;;;5029433;28;20119;-69
2023/09/02 11:58:25;;;;;;;3.75;2.72;;;28.80;47.90;;;;;;5029534;28;20053;-69
2023/09/02 12:00:51;;;;;;;2.50;2.05;;;28.90;48.00;;;;;;5024904;28;20577;-69
2023/09/02 12:03:28;;;;;;;3.33;2.60;;;28.70;48.00;;;;;;4989176;28;20126;-69
2023/09/02 12:05:57;;;;;;;2.60;2.20;;;28.90;48.00;;;;;;5031939;28;20469;-67
2023/09/02 12:08:23;;;;;;;3.00;2.58;;;28.80;48.00;;;;;;5046000;28;20041;-69
2023/09/02 12:10:49;;;;;;;2.47;2.28;;;28.80;48.10;;;;;;5046061;28;20057;-69
2023/09/02 12:13:16;;;;;;;6.55;2.33;;;28.70;48.10;;;;;;5012985;28;20060;-68
2023/09/02 12:15:46;;;;;;;3.00;2.70;;;28.80;48.10;;;;;;5031822;28;20127;-69
2023/09/02 12:18:13;;;;;;;2.42;2.22;;;28.90;48.10;;;;;;5031477;28;20025;-69
2023/09/02 12:20:39;;;;;;;1.83;1.73;;;28.70;48.10;;;;;;5031694;28;20512;-69
2023/09/02 12:23:05;;;;;;;2.47;2.28;;;28.90;48.20;;;;;;5031480;28;20045;-69
2023/09/02 12:25:33;;;;;;;3.80;2.55;;;28.90;48.10;;;;;;5031458;28;20115;-69
2023/09/02 12:28:14;;;;;;;2.60;2.40;;;28.90;48.10;;;;;;5031498;28;20025;-69
2023/09/02 12:30:40;;;;;;;4.00;2.28;;;28.90;48.20;;;;;;5031689;28;20060;-69
2023/09/02 12:33:07;;;;;;;2.83;2.45;;;28.90;48.20;;;;;;5033593;28;20025;-69
2023/09/02 12:35:33;;;;;;;4.00;2.60;;;28.80;48.30;;;;;;5051313;28;20078;-69
2023/09/02 12:38:04;;;;;;;2.53;2.33;;;28.90;48.30;;;;;;5051035;28;20408;-69
2023/09/02 12:40:32;;;;;;;2.53;2.30;;;28.80;48.30;;;;;;5051529;28;20155;-69
2023/09/02 12:42:59;;;;;;;2.40;2.20;;;28.90;48.30;;;;;;5051079;28;20041;-69
2023/09/02 12:45:33;;;;;;;2.70;2.40;;;28.90;48.30;;;;;;5053377;28;20049;-69
2023/09/02 12:48:03;;;;;;;2.78;1.58;;;28.90;48.30;;;;;;5051066;28;20045;-69
2023/09/02 12:50:30;;;;;;;2.45;2.05;;;28.80;48.20;;;;;;5051231;28;20028;-70
2023/09/02 12:52:58;;;;;;;3.17;2.25;;;28.90;48.30;;;;;;5048709;28;20114;-69